East Springfield, Pennsylvania
Current Conditions -  °F | °C
As of 12:51 PM on Tuesday 21 Oct 2014 (Local Time) from KERI Reporting Station
Overcast Overcast  
Wind Chill: 52°   Ceiling: 1600
Heat Index: 52°   Visibility: 10mi
Dew Point: 44°   Wind: 8mph
Humidity: 74%   Direction: 340°NNW
Pressure: 29.9"   Gusts: NA
Location:  41.96°N, 80.41°W
Report Text: KERI 211651Z 34007KT 10SM BKN016 OVC023 11/07 A2990 RMK AO2 RAE1559 SLP126 P0000 T01110067 $
Loading
Personal Weather Stations






























Interactive Weather Map New forecast layout! Learn more

10-Day Weather Forecast

Advertisements
Track Severe Weather on mobile